sensor_id;sensor_type;location;lat;lon;timestamp;P1;durP1;ratioP1;P2;durP2;ratioP2
68866;SDS011;56451;44.804;20.476;2024-01-25T00:00:55;26.53;;;11.83;;
68866;SDS011;56451;44.804;20.476;2024-01-25T00:03:42;20.42;;;11.45;;
68866;SDS011;56451;44.804;20.476;2024-01-25T00:06:28;21.73;;;10.02;;
68866;SDS011;56451;44.804;20.476;2024-01-25T00:08:54;21.48;;;11.00;;
68866;SDS011;56451;44.804;20.476;2024-01-25T00:11:40;21.90;;;10.07;;
68866;SDS011;56451;44.804;20.476;2024-01-25T00:14:14;22.27;;;10.67;;
68866;SDS011;56451;44.804;20.476;2024-01-25T00:16:43;22.33;;;10.60;;
68866;SDS011;56451;44.804;20.476;2024-01-25T00:19:11;23.42;;;11.77;;
68866;SDS011;56451;44.804;20.476;2024-01-25T00:22:02;25.75;;;11.45;;
68866;SDS011;56451;44.804;20.476;2024-01-25T00:24:49;25.20;;;11.70;;
68866;SDS011;56451;44.804;20.476;2024-01-25T00:27:15;25.17;;;12.43;;
68866;SDS011;56451;44.804;20.476;2024-01-25T00:30:05;27.38;;;13.13;;
68866;SDS011;56451;44.804;20.476;2024-01-25T00:32:52;26.45;;;14.57;;
68866;SDS011;56451;44.804;20.476;2024-01-25T00:35:20;27.50;;;13.13;;
68866;SDS011;56451;44.804;20.476;2024-01-25T00:38:16;28.42;;;14.20;;
68866;SDS011;56451;44.804;20.476;2024-01-25T00:41:02;32.07;;;15.57;;
68866;SDS011;56451;44.804;20.476;2024-01-25T00:43:30;30.15;;;15.30;;
68866;SDS011;56451;44.804;20.476;2024-01-25T00:45:57;29.98;;;15.15;;
68866;SDS011;56451;44.804;20.476;2024-01-25T00:48:33;32.35;;;15.90;;
68866;SDS011;56451;44.804;20.476;2024-01-25T00:51:22;32.55;;;15.55;;
68866;SDS011;56451;44.804;20.476;2024-01-25T00:53:49;32.50;;;16.13;;
68866;SDS011;56451;44.804;20.476;2024-01-25T00:56:36;32.53;;;16.58;;
68866;SDS011;56451;44.804;20.476;2024-01-25T00:59:22;33.85;;;16.90;;
68866;SDS011;56451;44.804;20.476;2024-01-25T01:02:11;31.10;;;15.32;;
68866;SDS011;56451;44.804;20.476;2024-01-25T01:04:40;35.17;;;17.15;;
68866;SDS011;56451;44.804;20.476;2024-01-25T01:07:07;36.57;;;16.63;;
68866;SDS011;56451;44.804;20.476;2024-01-25T01:09:54;36.53;;;17.02;;
68866;SDS011;56451;44.804;20.476;2024-01-25T01:12:23;35.85;;;17.10;;
68866;SDS011;56451;44.804;20.476;2024-01-25T01:15:09;35.10;;;18.17;;
68866;SDS011;56451;44.804;20.476;2024-01-25T01:17:55;33.55;;;17.70;;
68866;SDS011;56451;44.804;20.476;2024-01-25T01:20:42;38.13;;;18.10;;
68866;SDS011;56451;44.804;20.476;2024-01-25T01:23:29;38.63;;;18.48;;
68866;SDS011;56451;44.804;20.476;2024-01-25T01:26:18;36.95;;;18.55;;
68866;SDS011;56451;44.804;20.476;2024-01-25T01:29:06;37.72;;;18.83;;
68866;SDS011;56451;44.804;20.476;2024-01-25T01:31:55;36.38;;;18.63;;
68866;SDS011;56451;44.804;20.476;2024-01-25T01:34:42;39.00;;;19.83;;
68866;SDS011;56451;44.804;20.476;2024-01-25T01:37:31;39.97;;;20.20;;
68866;SDS011;56451;44.804;20.476;2024-01-25T01:39:57;40.28;;;18.63;;
68866;SDS011;56451;44.804;20.476;2024-01-25T01:42:44;36.22;;;19.42;;
68866;SDS011;56451;44.804;20.476;2024-01-25T01:45:30;35.13;;;18.70;;
68866;SDS011;56451;44.804;20.476;2024-01-25T01:48:17;37.67;;;18.97;;
68866;SDS011;56451;44.804;20.476;2024-01-25T01:51:03;35.00;;;18.98;;
68866;SDS011;56451;44.804;20.476;2024-01-25T01:53:50;34.83;;;18.27;;
68866;SDS011;56451;44.804;20.476;2024-01-25T01:56:47;38.13;;;18.77;;
68866;SDS011;56451;44.804;20.476;2024-01-25T01:59:34;35.47;;;17.80;;
68866;SDS011;56451;44.804;20.476;2024-01-25T02:02:21;35.97;;;17.07;;
68866;SDS011;56451;44.804;20.476;2024-01-25T02:05:30;36.08;;;17.38;;
68866;SDS011;56451;44.804;20.476;2024-01-25T02:08:16;38.05;;;18.40;;
68866;SDS011;56451;44.804;20.476;2024-01-25T02:11:03;36.00;;;17.27;;
68866;SDS011;56451;44.804;20.476;2024-01-25T02:13:29;34.88;;;16.98;;
68866;SDS011;56451;44.804;20.476;2024-01-25T02:16:01;31.93;;;16.17;;
68866;SDS011;56451;44.804;20.476;2024-01-25T02:18:30;36.80;;;18.05;;
68866;SDS011;56451;44.804;20.476;2024-01-25T02:20:57;31.92;;;17.08;;
68866;SDS011;56451;44.804;20.476;2024-01-25T02:23:44;30.90;;;16.58;;
68866;SDS011;56451;44.804;20.476;2024-01-25T02:26:33;28.13;;;16.35;;
68866;SDS011;56451;44.804;20.476;2024-01-25T02:29:20;34.57;;;16.27;;
68866;SDS011;56451;44.804;20.476;2024-01-25T02:32:06;31.50;;;16.15;;
68866;SDS011;56451;44.804;20.476;2024-01-25T02:34:52;31.73;;;16.23;;
68866;SDS011;56451;44.804;20.476;2024-01-25T02:37:40;29.73;;;16.42;;
68866;SDS011;56451;44.804;20.476;2024-01-25T02:40:07;28.35;;;15.50;;
68866;SDS011;56451;44.804;20.476;2024-01-25T02:42:53;27.93;;;15.33;;
68866;SDS011;56451;44.804;20.476;2024-01-25T02:45:21;29.98;;;16.02;;
68866;SDS011;56451;44.804;20.476;2024-01-25T02:48:18;29.98;;;15.90;;
68866;SDS011;56451;44.804;20.476;2024-01-25T02:50:47;35.65;;;17.52;;
68866;SDS011;56451;44.804;20.476;2024-01-25T02:53:33;32.30;;;16.52;;
68866;SDS011;56451;44.804;20.476;2024-01-25T02:56:20;35.77;;;16.33;;
68866;SDS011;56451;44.804;20.476;2024-01-25T02:59:06;31.63;;;15.85;;
68866;SDS011;56451;44.804;20.476;2024-01-25T03:01:53;35.45;;;17.85;;
68866;SDS011;56451;44.804;20.476;2024-01-25T03:04:25;35.17;;;16.88;;
68866;SDS011;56451;44.804;20.476;2024-01-25T03:06:52;29.73;;;16.40;;
68866;SDS011;56451;44.804;20.476;2024-01-25T03:09:38;34.97;;;16.73;;
68866;SDS011;56451;44.804;20.476;2024-01-25T03:12:28;30.23;;;15.93;;
68866;SDS011;56451;44.804;20.476;2024-01-25T03:14:55;30.38;;;16.70;;
68866;SDS011;56451;44.804;20.476;2024-01-25T03:17:21;31.80;;;17.17;;
68866;SDS011;56451;44.804;20.476;2024-01-25T03:19:47;31.58;;;16.73;;
68866;SDS011;56451;44.804;20.476;2024-01-25T03:22:35;35.00;;;17.17;;
68866;SDS011;56451;44.804;20.476;2024-01-25T03:25:22;31.60;;;16.00;;
68866;SDS011;56451;44.804;20.476;2024-01-25T03:28:08;30.42;;;15.73;;
68866;SDS011;56451;44.804;20.476;2024-01-25T03:30:54;35.05;;;17.50;;
68866;SDS011;56451;44.804;20.476;2024-01-25T03:33:40;36.95;;;17.02;;
68866;SDS011;56451;44.804;20.476;2024-01-25T03:36:24;34.53;;;17.13;;
68866;SDS011;56451;44.804;20.476;2024-01-25T03:39:11;33.92;;;17.40;;
68866;SDS011;56451;44.804;20.476;2024-01-25T03:41:57;35.33;;;18.40;;
68866;SDS011;56451;44.804;20.476;2024-01-25T03:44:43;31.00;;;16.45;;
68866;SDS011;56451;44.804;20.476;2024-01-25T03:47:30;33.55;;;16.60;;
68866;SDS011;56451;44.804;20.476;2024-01-25T03:50:18;32.37;;;17.50;;
68866;SDS011;56451;44.804;20.476;2024-01-25T03:52:44;30.23;;;16.65;;
68866;SDS011;56451;44.804;20.476;2024-01-25T03:55:10;37.28;;;17.17;;
68866;SDS011;56451;44.804;20.476;2024-01-25T03:58:00;33.47;;;17.33;;
68866;SDS011;56451;44.804;20.476;2024-01-25T04:00:27;35.92;;;18.42;;
68866;SDS011;56451;44.804;20.476;2024-01-25T04:02:53;34.63;;;18.13;;
68866;SDS011;56451;44.804;20.476;2024-01-25T04:05:40;34.15;;;17.33;;
68866;SDS011;56451;44.804;20.476;2024-01-25T04:08:17;35.08;;;17.90;;
68866;SDS011;56451;44.804;20.476;2024-01-25T04:10:45;35.65;;;18.63;;
68866;SDS011;56451;44.804;20.476;2024-01-25T04:13:34;35.67;;;18.15;;
68866;SDS011;56451;44.804;20.476;2024-01-25T04:16:25;34.93;;;18.27;;
68866;SDS011;56451;44.804;20.476;2024-01-25T04:19:20;37.45;;;18.15;;
68866;SDS011;56451;44.804;20.476;2024-01-25T04:21:46;35.25;;;18.70;;
68866;SDS011;56451;44.804;20.476;2024-01-25T04:24:13;36.25;;;17.92;;
68866;SDS011;56451;44.804;20.476;2024-01-25T04:27:13;33.72;;;18.35;;
68866;SDS011;56451;44.804;20.476;2024-01-25T04:29:40;32.43;;;18.93;;
68866;SDS011;56451;44.804;20.476;2024-01-25T04:32:10;39.40;;;19.23;;
68866;SDS011;56451;44.804;20.476;2024-01-25T04:34:58;35.85;;;18.55;;
68866;SDS011;56451;44.804;20.476;2024-01-25T04:37:26;38.33;;;18.83;;
68866;SDS011;56451;44.804;20.476;2024-01-25T04:39:52;37.75;;;19.13;;
68866;SDS011;56451;44.804;20.476;2024-01-25T04:42:38;37.57;;;18.33;;
68866;SDS011;56451;44.804;20.476;2024-01-25T04:45:24;36.00;;;18.23;;
68866;SDS011;56451;44.804;20.476;2024-01-25T04:48:11;34.45;;;18.55;;
68866;SDS011;56451;44.804;20.476;2024-01-25T04:51:00;42.55;;;20.45;;
68866;SDS011;56451;44.804;20.476;2024-01-25T04:53:48;34.67;;;18.17;;
68866;SDS011;56451;44.804;20.476;2024-01-25T04:56:35;34.53;;;18.33;;
68866;SDS011;56451;44.804;20.476;2024-01-25T04:59:21;37.38;;;19.30;;
68866;SDS011;56451;44.804;20.476;2024-01-25T05:01:48;43.88;;;20.90;;
68866;SDS011;56451;44.804;20.476;2024-01-25T05:04:34;36.97;;;19.67;;
68866;SDS011;56451;44.804;20.476;2024-01-25T05:07:20;36.63;;;19.25;;
68866;SDS011;56451;44.804;20.476;2024-01-25T05:09:46;35.95;;;20.38;;
68866;SDS011;56451;44.804;20.476;2024-01-25T05:12:34;38.40;;;20.23;;
68866;SDS011;56451;44.804;20.476;2024-01-25T05:15:23;40.13;;;19.52;;
68866;SDS011;56451;44.804;20.476;2024-01-25T05:18:32;37.78;;;19.13;;
68866;SDS011;56451;44.804;20.476;2024-01-25T05:21:19;35.38;;;20.23;;
68866;SDS011;56451;44.804;20.476;2024-01-25T05:24:08;40.70;;;19.95;;
68866;SDS011;56451;44.804;20.476;2024-01-25T05:26:41;42.15;;;21.33;;
68866;SDS011;56451;44.804;20.476;2024-01-25T05:29:14;40.30;;;20.98;;
68866;SDS011;56451;44.804;20.476;2024-01-25T05:31:41;39.13;;;19.60;;
68866;SDS011;56451;44.804;20.476;2024-01-25T05:34:27;36.38;;;19.35;;
68866;SDS011;56451;44.804;20.476;2024-01-25T05:37:13;35.28;;;19.83;;
68866;SDS011;56451;44.804;20.476;2024-01-25T05:39:52;44.75;;;19.10;;
68866;SDS011;56451;44.804;20.476;2024-01-25T05:42:18;34.95;;;19.23;;
68866;SDS011;56451;44.804;20.476;2024-01-25T05:45:02;37.53;;;19.05;;
68866;SDS011;56451;44.804;20.476;2024-01-25T05:47:31;36.83;;;19.00;;
68866;SDS011;56451;44.804;20.476;2024-01-25T05:50:21;34.83;;;18.00;;
68866;SDS011;56451;44.804;20.476;2024-01-25T05:53:07;34.80;;;17.67;;
68866;SDS011;56451;44.804;20.476;2024-01-25T05:55:53;34.88;;;17.58;;
68866;SDS011;56451;44.804;20.476;2024-01-25T05:58:19;34.88;;;17.98;;
68866;SDS011;56451;44.804;20.476;2024-01-25T06:00:45;35.15;;;18.40;;
68866;SDS011;56451;44.804;20.476;2024-01-25T06:03:31;34.53;;;18.25;;
68866;SDS011;56451;44.804;20.476;2024-01-25T06:06:19;36.75;;;19.15;;
68866;SDS011;56451;44.804;20.476;2024-01-25T06:09:08;34.10;;;18.48;;
68866;SDS011;56451;44.804;20.476;2024-01-25T06:11:55;33.80;;;17.67;;
68866;SDS011;56451;44.804;20.476;2024-01-25T06:14:22;35.15;;;17.92;;
68866;SDS011;56451;44.804;20.476;2024-01-25T06:17:08;40.05;;;19.40;;
68866;SDS011;56451;44.804;20.476;2024-01-25T06:19:36;34.58;;;18.25;;
68866;SDS011;56451;44.804;20.476;2024-01-25T06:22:23;36.05;;;18.52;;
68866;SDS011;56451;44.804;20.476;2024-01-25T06:25:09;34.30;;;17.30;;
68866;SDS011;56451;44.804;20.476;2024-01-25T06:27:57;34.45;;;17.70;;
68866;SDS011;56451;44.804;20.476;2024-01-25T06:30:43;30.92;;;16.65;;
68866;SDS011;56451;44.804;20.476;2024-01-25T06:33:34;31.02;;;16.33;;
68866;SDS011;56451;44.804;20.476;2024-01-25T06:36:24;27.90;;;15.43;;
68866;SDS011;56451;44.804;20.476;2024-01-25T06:39:11;32.65;;;16.15;;
68866;SDS011;56451;44.804;20.476;2024-01-25T06:41:38;28.27;;;15.43;;
68866;SDS011;56451;44.804;20.476;2024-01-25T06:44:25;26.90;;;15.05;;
68866;SDS011;56451;44.804;20.476;2024-01-25T06:47:14;26.20;;;15.25;;
68866;SDS011;56451;44.804;20.476;2024-01-25T06:49:41;26.73;;;15.43;;
68866;SDS011;56451;44.804;20.476;2024-01-25T06:52:08;27.33;;;13.57;;
68866;SDS011;56451;44.804;20.476;2024-01-25T06:54:54;29.05;;;14.15;;
68866;SDS011;56451;44.804;20.476;2024-01-25T06:57:23;26.25;;;13.35;;
68866;SDS011;56451;44.804;20.476;2024-01-25T06:59:49;28.52;;;13.93;;
68866;SDS011;56451;44.804;20.476;2024-01-25T07:02:39;28.45;;;14.82;;
68866;SDS011;56451;44.804;20.476;2024-01-25T07:05:26;27.50;;;14.27;;
68866;SDS011;56451;44.804;20.476;2024-01-25T07:07:59;27.38;;;13.80;;
68866;SDS011;56451;44.804;20.476;2024-01-25T07:10:45;26.17;;;14.30;;
68866;SDS011;56451;44.804;20.476;2024-01-25T07:13:12;25.95;;;13.48;;
68866;SDS011;56451;44.804;20.476;2024-01-25T07:15:58;26.00;;;13.35;;
68866;SDS011;56451;44.804;20.476;2024-01-25T07:18:45;26.05;;;13.32;;
68866;SDS011;56451;44.804;20.476;2024-01-25T07:21:37;27.08;;;12.55;;
68866;SDS011;56451;44.804;20.476;2024-01-25T07:24:24;23.17;;;11.07;;
68866;SDS011;56451;44.804;20.476;2024-01-25T07:26:52;23.63;;;12.02;;
68866;SDS011;56451;44.804;20.476;2024-01-25T07:29:40;24.23;;;11.77;;
68866;SDS011;56451;44.804;20.476;2024-01-25T07:32:29;23.23;;;11.90;;
68866;SDS011;56451;44.804;20.476;2024-01-25T07:35:16;25.75;;;11.63;;
68866;SDS011;56451;44.804;20.476;2024-01-25T07:37:44;23.33;;;12.00;;
68866;SDS011;56451;44.804;20.476;2024-01-25T07:40:31;19.42;;;10.35;;
68866;SDS011;56451;44.804;20.476;2024-01-25T07:42:57;20.27;;;10.57;;
68866;SDS011;56451;44.804;20.476;2024-01-25T07:45:45;18.13;;;9.20;;
68866;SDS011;56451;44.804;20.476;2024-01-25T07:48:31;21.75;;;9.98;;
68866;SDS011;56451;44.804;20.476;2024-01-25T07:51:17;23.52;;;10.45;;
68866;SDS011;56451;44.804;20.476;2024-01-25T07:53:43;20.42;;;10.70;;
68866;SDS011;56451;44.804;20.476;2024-01-25T07:56:09;21.42;;;10.48;;
68866;SDS011;56451;44.804;20.476;2024-01-25T07:58:36;18.55;;;10.48;;
68866;SDS011;56451;44.804;20.476;2024-01-25T08:01:25;24.25;;;10.45;;
68866;SDS011;56451;44.804;20.476;2024-01-25T08:03:51;19.95;;;10.30;;
68866;SDS011;56451;44.804;20.476;2024-01-25T08:06:32;22.73;;;10.15;;
68866;SDS011;56451;44.804;20.476;2024-01-25T08:09:18;21.95;;;11.77;;
68866;SDS011;56451;44.804;20.476;2024-01-25T08:12:08;22.58;;;10.82;;
68866;SDS011;56451;44.804;20.476;2024-01-25T08:14:54;22.45;;;10.77;;
68866;SDS011;56451;44.804;20.476;2024-01-25T08:17:20;25.13;;;12.20;;
68866;SDS011;56451;44.804;20.476;2024-01-25T08:20:09;26.38;;;12.82;;
68866;SDS011;56451;44.804;20.476;2024-01-25T08:22:41;26.27;;;13.13;;
68866;SDS011;56451;44.804;20.476;2024-01-25T08:25:08;23.27;;;12.55;;
68866;SDS011;56451;44.804;20.476;2024-01-25T08:27:39;26.52;;;13.98;;
68866;SDS011;56451;44.804;20.476;2024-01-25T08:30:06;24.00;;;13.30;;
68866;SDS011;56451;44.804;20.476;2024-01-25T08:32:55;27.88;;;13.90;;
68866;SDS011;56451;44.804;20.476;2024-01-25T08:39:14;28.63;;;14.27;;
68866;SDS011;56451;44.804;20.476;2024-01-25T08:42:34;27.23;;;14.52;;
68866;SDS011;56451;44.804;20.476;2024-01-25T08:45:34;27.65;;;13.90;;
68866;SDS011;56451;44.804;20.476;2024-01-25T08:48:22;27.83;;;13.50;;
68866;SDS011;56451;44.804;20.476;2024-01-25T08:55:30;27.77;;;14.70;;
68866;SDS011;56451;44.804;20.476;2024-01-25T08:59:10;26.60;;;15.60;;
68866;SDS011;56451;44.804;20.476;2024-01-25T09:02:02;28.13;;;16.25;;
68866;SDS011;56451;44.804;20.476;2024-01-25T09:04:33;30.50;;;16.20;;
68866;SDS011;56451;44.804;20.476;2024-01-25T09:07:24;30.45;;;15.52;;
68866;SDS011;56451;44.804;20.476;2024-01-25T09:09:50;30.25;;;16.27;;
68866;SDS011;56451;44.804;20.476;2024-01-25T09:12:37;33.97;;;16.52;;
68866;SDS011;56451;44.804;20.476;2024-01-25T09:15:24;31.65;;;18.27;;
68866;SDS011;56451;44.804;20.476;2024-01-25T09:18:11;29.52;;;15.90;;
68866;SDS011;56451;44.804;20.476;2024-01-25T09:21:03;29.63;;;14.60;;
68866;SDS011;56451;44.804;20.476;2024-01-25T09:23:50;30.30;;;16.35;;
68866;SDS011;56451;44.804;20.476;2024-01-25T09:26:17;31.40;;;16.57;;
68866;SDS011;56451;44.804;20.476;2024-01-25T09:28:44;32.35;;;17.77;;
68866;SDS011;56451;44.804;20.476;2024-01-25T09:31:11;33.65;;;18.00;;
68866;SDS011;56451;44.804;20.476;2024-01-25T09:33:37;35.95;;;18.20;;
68866;SDS011;56451;44.804;20.476;2024-01-25T09:36:24;33.25;;;16.35;;
68866;SDS011;56451;44.804;20.476;2024-01-25T09:39:08;29.37;;;16.53;;
68866;SDS011;56451;44.804;20.476;2024-01-25T09:41:35;32.42;;;16.90;;
68866;SDS011;56451;44.804;20.476;2024-01-25T09:44:24;34.20;;;16.88;;
68866;SDS011;56451;44.804;20.476;2024-01-25T09:46:51;32.03;;;17.42;;
68866;SDS011;56451;44.804;20.476;2024-01-25T09:49:17;32.30;;;17.73;;
68866;SDS011;56451;44.804;20.476;2024-01-25T09:51:43;32.63;;;16.97;;
68866;SDS011;56451;44.804;20.476;2024-01-25T09:54:11;33.30;;;16.67;;
68866;SDS011;56451;44.804;20.476;2024-01-25T09:56:58;37.50;;;17.60;;
68866;SDS011;56451;44.804;20.476;2024-01-25T09:59:45;29.95;;;17.95;;
68866;SDS011;56451;44.804;20.476;2024-01-25T10:02:33;32.72;;;18.38;;
68866;SDS011;56451;44.804;20.476;2024-01-25T10:05:20;32.80;;;17.57;;
68866;SDS011;56451;44.804;20.476;2024-01-25T10:08:12;31.00;;;19.23;;
68866;SDS011;56451;44.804;20.476;2024-01-25T10:11:05;30.88;;;17.17;;
68866;SDS011;56451;44.804;20.476;2024-01-25T10:13:52;33.22;;;19.10;;
68866;SDS011;56451;44.804;20.476;2024-01-25T10:16:38;34.80;;;17.98;;
68866;SDS011;56451;44.804;20.476;2024-01-25T10:19:24;32.27;;;17.43;;
68866;SDS011;56451;44.804;20.476;2024-01-25T10:22:11;34.90;;;17.38;;
68866;SDS011;56451;44.804;20.476;2024-01-25T10:24:57;29.67;;;16.40;;
68866;SDS011;56451;44.804;20.476;2024-01-25T10:27:43;29.90;;;15.30;;
68866;SDS011;56451;44.804;20.476;2024-01-25T10:30:34;34.33;;;16.23;;
68866;SDS011;56451;44.804;20.476;2024-01-25T10:33:21;32.17;;;14.83;;
68866;SDS011;56451;44.804;20.476;2024-01-25T10:36:08;26.20;;;14.68;;
68866;SDS011;56451;44.804;20.476;2024-01-25T10:38:37;24.95;;;13.15;;
68866;SDS011;56451;44.804;20.476;2024-01-25T10:41:24;19.55;;;10.65;;
68866;SDS011;56451;44.804;20.476;2024-01-25T10:44:12;16.30;;;8.93;;
68866;SDS011;56451;44.804;20.476;2024-01-25T10:46:59;15.50;;;8.93;;
68866;SDS011;56451;44.804;20.476;2024-01-25T10:49:46;22.60;;;7.93;;
68866;SDS011;56451;44.804;20.476;2024-01-25T10:52:33;19.10;;;9.27;;
68866;SDS011;56451;44.804;20.476;2024-01-25T10:55:20;12.50;;;6.65;;
68866;SDS011;56451;44.804;20.476;2024-01-25T10:58:06;13.50;;;6.38;;
68866;SDS011;56451;44.804;20.476;2024-01-25T11:00:56;14.13;;;7.07;;
68866;SDS011;56451;44.804;20.476;2024-01-25T11:03:42;12.90;;;5.15;;
68866;SDS011;56451;44.804;20.476;2024-01-25T11:06:31;10.45;;;4.03;;
68866;SDS011;56451;44.804;20.476;2024-01-25T11:09:18;8.77;;;3.67;;
68866;SDS011;56451;44.804;20.476;2024-01-25T11:12:11;10.05;;;3.40;;
68866;SDS011;56451;44.804;20.476;2024-01-25T11:15:06;13.60;;;3.90;;
68866;SDS011;56451;44.804;20.476;2024-01-25T11:17:53;6.32;;;2.53;;
68866;SDS011;56451;44.804;20.476;2024-01-25T11:20:40;11.18;;;3.08;;
68866;SDS011;56451;44.804;20.476;2024-01-25T11:23:31;13.95;;;4.53;;
68866;SDS011;56451;44.804;20.476;2024-01-25T11:26:17;11.23;;;2.60;;
68866;SDS011;56451;44.804;20.476;2024-01-25T11:28:43;9.00;;;2.10;;
68866;SDS011;56451;44.804;20.476;2024-01-25T11:31:09;10.95;;;2.53;;
68866;SDS011;56451;44.804;20.476;2024-01-25T11:33:59;9.93;;;2.17;;
68866;SDS011;56451;44.804;20.476;2024-01-25T11:36:46;6.00;;;2.03;;
68866;SDS011;56451;44.804;20.476;2024-01-25T11:39:32;8.93;;;2.60;;
68866;SDS011;56451;44.804;20.476;2024-01-25T11:42:18;10.53;;;2.57;;
68866;SDS011;56451;44.804;20.476;2024-01-25T11:45:06;11.75;;;3.42;;
68866;SDS011;56451;44.804;20.476;2024-01-25T11:47:55;10.25;;;3.55;;
68866;SDS011;56451;44.804;20.476;2024-01-25T11:50:41;13.13;;;4.25;;
68866;SDS011;56451;44.804;20.476;2024-01-25T11:53:07;11.75;;;4.47;;
68866;SDS011;56451;44.804;20.476;2024-01-25T11:55:34;11.17;;;3.47;;
68866;SDS011;56451;44.804;20.476;2024-01-25T11:58:03;17.90;;;4.07;;
68866;SDS011;56451;44.804;20.476;2024-01-25T12:00:49;11.90;;;4.20;;
68866;SDS011;56451;44.804;20.476;2024-01-25T12:03:17;12.57;;;5.38;;
68866;SDS011;56451;44.804;20.476;2024-01-25T12:05:43;10.57;;;3.55;;
68866;SDS011;56451;44.804;20.476;2024-01-25T12:08:33;15.33;;;3.73;;
68866;SDS011;56451;44.804;20.476;2024-01-25T12:11:06;11.90;;;3.90;;
68866;SDS011;56451;44.804;20.476;2024-01-25T12:13:40;11.23;;;3.60;;
68866;SDS011;56451;44.804;20.476;2024-01-25T12:16:27;16.17;;;4.22;;
68866;SDS011;56451;44.804;20.476;2024-01-25T12:18:54;9.48;;;2.75;;
68866;SDS011;56451;44.804;20.476;2024-01-25T12:21:21;10.70;;;3.17;;
68866;SDS011;56451;44.804;20.476;2024-01-25T12:23:47;9.80;;;3.33;;
68866;SDS011;56451;44.804;20.476;2024-01-25T12:26:13;21.75;;;8.27;;
68866;SDS011;56451;44.804;20.476;2024-01-25T12:28:41;11.35;;;3.85;;
68866;SDS011;56451;44.804;20.476;2024-01-25T12:31:11;20.15;;;5.10;;
68866;SDS011;56451;44.804;20.476;2024-01-25T12:33:41;8.73;;;3.40;;
68866;SDS011;56451;44.804;20.476;2024-01-25T12:36:13;9.73;;;2.80;;
68866;SDS011;56451;44.804;20.476;2024-01-25T12:38:42;15.73;;;4.85;;
68866;SDS011;56451;44.804;20.476;2024-01-25T12:41:28;9.60;;;3.70;;
68866;SDS011;56451;44.804;20.476;2024-01-25T12:44:14;11.23;;;4.18;;
68866;SDS011;56451;44.804;20.476;2024-01-25T12:46:54;12.33;;;4.17;;
68866;SDS011;56451;44.804;20.476;2024-01-25T12:49:43;9.15;;;3.90;;
68866;SDS011;56451;44.804;20.476;2024-01-25T12:52:14;10.40;;;3.47;;
68866;SDS011;56451;44.804;20.476;2024-01-25T12:55:01;7.40;;;3.50;;
68866;SDS011;56451;44.804;20.476;2024-01-25T12:57:47;12.27;;;3.92;;
68866;SDS011;56451;44.804;20.476;2024-01-25T13:00:33;13.60;;;3.97;;
68866;SDS011;56451;44.804;20.476;2024-01-25T13:03:19;16.15;;;4.47;;
68866;SDS011;56451;44.804;20.476;2024-01-25T13:06:05;13.20;;;4.03;;
68866;SDS011;56451;44.804;20.476;2024-01-25T13:08:31;11.88;;;4.13;;
68866;SDS011;56451;44.804;20.476;2024-01-25T13:10:58;12.77;;;4.20;;
68866;SDS011;56451;44.804;20.476;2024-01-25T13:13:24;11.03;;;4.20;;
68866;SDS011;56451;44.804;20.476;2024-01-25T13:16:10;15.77;;;4.32;;
68866;SDS011;56451;44.804;20.476;2024-01-25T13:18:56;14.27;;;4.50;;
68866;SDS011;56451;44.804;20.476;2024-01-25T13:21:44;12.88;;;4.72;;
68866;SDS011;56451;44.804;20.476;2024-01-25T13:24:30;14.80;;;4.03;;
68866;SDS011;56451;44.804;20.476;2024-01-25T13:27:16;12.50;;;4.63;;
68866;SDS011;56451;44.804;20.476;2024-01-25T13:29:42;13.73;;;4.28;;
68866;SDS011;56451;44.804;20.476;2024-01-25T13:32:09;14.02;;;4.60;;
68866;SDS011;56451;44.804;20.476;2024-01-25T13:34:55;13.45;;;4.28;;
68866;SDS011;56451;44.804;20.476;2024-01-25T13:37:42;9.70;;;3.67;;
68866;SDS011;56451;44.804;20.476;2024-01-25T13:40:29;13.90;;;7.20;;
68866;SDS011;56451;44.804;20.476;2024-01-25T13:43:15;12.35;;;5.72;;
68866;SDS011;56451;44.804;20.476;2024-01-25T13:46:04;21.60;;;4.25;;
68866;SDS011;56451;44.804;20.476;2024-01-25T13:48:50;15.70;;;8.90;;
68866;SDS011;56451;44.804;20.476;2024-01-25T13:51:16;14.85;;;6.10;;
68866;SDS011;56451;44.804;20.476;2024-01-25T13:53:42;15.50;;;8.40;;
68866;SDS011;56451;44.804;20.476;2024-01-25T13:56:08;9.55;;;4.88;;
68866;SDS011;56451;44.804;20.476;2024-01-25T13:58:34;13.10;;;4.00;;
68866;SDS011;56451;44.804;20.476;2024-01-25T14:01:01;11.43;;;3.45;;
68866;SDS011;56451;44.804;20.476;2024-01-25T14:03:27;9.55;;;3.05;;
68866;SDS011;56451;44.804;20.476;2024-01-25T14:05:54;11.75;;;3.60;;
68866;SDS011;56451;44.804;20.476;2024-01-25T14:08:23;12.50;;;4.15;;
68866;SDS011;56451;44.804;20.476;2024-01-25T14:11:09;21.67;;;8.57;;
68866;SDS011;56451;44.804;20.476;2024-01-25T14:13:35;46.50;;;22.30;;
68866;SDS011;56451;44.804;20.476;2024-01-25T14:16:21;11.50;;;4.20;;
68866;SDS011;56451;44.804;20.476;2024-01-25T14:19:08;15.40;;;4.93;;
68866;SDS011;56451;44.804;20.476;2024-01-25T14:21:54;15.48;;;5.13;;
68866;SDS011;56451;44.804;20.476;2024-01-25T14:24:40;15.95;;;5.43;;
68866;SDS011;56451;44.804;20.476;2024-01-25T14:27:26;19.00;;;6.90;;
68866;SDS011;56451;44.804;20.476;2024-01-25T14:30:15;18.42;;;6.65;;
68866;SDS011;56451;44.804;20.476;2024-01-25T14:33:01;18.42;;;8.77;;
68866;SDS011;56451;44.804;20.476;2024-01-25T14:35:48;15.68;;;7.70;;
68866;SDS011;56451;44.804;20.476;2024-01-25T14:38:37;27.05;;;13.43;;
68866;SDS011;56451;44.804;20.476;2024-01-25T14:41:07;14.70;;;6.20;;
68866;SDS011;56451;44.804;20.476;2024-01-25T14:43:35;16.17;;;5.75;;
68866;SDS011;56451;44.804;20.476;2024-01-25T14:46:05;15.10;;;5.80;;
68866;SDS011;56451;44.804;20.476;2024-01-25T14:48:36;14.90;;;6.05;;
68866;SDS011;56451;44.804;20.476;2024-01-25T14:51:02;15.95;;;6.22;;
68866;SDS011;56451;44.804;20.476;2024-01-25T14:53:51;20.70;;;7.25;;
68866;SDS011;56451;44.804;20.476;2024-01-25T14:56:38;15.45;;;6.72;;
68866;SDS011;56451;44.804;20.476;2024-01-25T14:59:05;15.80;;;8.07;;
68866;SDS011;56451;44.804;20.476;2024-01-25T15:01:31;23.20;;;10.20;;
68866;SDS011;56451;44.804;20.476;2024-01-25T15:03:58;23.15;;;11.23;;
68866;SDS011;56451;44.804;20.476;2024-01-25T15:06:26;25.00;;;10.85;;
68866;SDS011;56451;44.804;20.476;2024-01-25T15:08:52;23.97;;;9.90;;
68866;SDS011;56451;44.804;20.476;2024-01-25T15:11:18;23.13;;;10.27;;
68866;SDS011;56451;44.804;20.476;2024-01-25T15:13:47;25.73;;;12.45;;
68866;SDS011;56451;44.804;20.476;2024-01-25T15:16:14;29.27;;;15.15;;
68866;SDS011;56451;44.804;20.476;2024-01-25T15:18:44;29.52;;;12.70;;
68866;SDS011;56451;44.804;20.476;2024-01-25T15:21:31;24.00;;;12.35;;
68866;SDS011;56451;44.804;20.476;2024-01-25T15:24:17;27.75;;;13.57;;
68866;SDS011;56451;44.804;20.476;2024-01-25T15:27:04;24.58;;;12.40;;
68866;SDS011;56451;44.804;20.476;2024-01-25T15:29:50;23.05;;;12.38;;
68866;SDS011;56451;44.804;20.476;2024-01-25T15:32:37;25.63;;;12.20;;
68866;SDS011;56451;44.804;20.476;2024-01-25T15:35:23;31.92;;;13.80;;
68866;SDS011;56451;44.804;20.476;2024-01-25T15:38:09;28.88;;;14.00;;